Time;durP1;ratioP1;P1;durP2;ratioP2;P2;SDS_P1;SDS_P2;PMS_P1;PMS_P2;Temp;Humidity;BMP_temperature;BMP_pressure;BME280_temperature;BME280_humidity;BME280_pressure;Samples;Min_cycle;Max_cycle;Signal;HPM_P1;HPM_P2
2023/03/25 00:01:18;;;;;;;;;17.00;15.00;;;;;;;;117380;1180;24978;-62
2023/03/25 00:03:49;;;;;;;;;10.00;9.00;;;;;;;;117420;1193;25150;-62
2023/03/25 00:06:18;;;;;;;;;17.50;16.00;;;;;;;;117378;1186;25280;-62
2023/03/25 00:08:47;;;;;;;;;15.00;14.50;;;;;;;;117407;1194;25185;-62
2023/03/25 00:11:15;;;;;;;;;19.50;16.50;;;;;;;;117408;1186;25397;-62
2023/03/25 00:13:43;;;;;;;;;16.50;16.50;;;;;;;;117393;1193;25690;-62
2023/03/25 00:16:12;;;;;;;;;19.00;17.00;;;;;;;;117404;1186;25814;-62
2023/03/25 00:18:41;;;;;;;;;20.00;16.00;;;;;;;;117404;1182;24867;-62
2023/03/25 00:21:10;;;;;;;;;18.25;17.50;;;;;;;;117358;1183;25339;-62
2023/03/25 00:23:40;;;;;;;;;16.00;16.00;;;;;;;;117356;1183;25079;-63
2023/03/25 00:26:09;;;;;;;;;22.00;19.00;;;;;;;;117449;1182;25124;-63
2023/03/25 00:28:38;;;;;;;;;18.00;17.00;;;;;;;;117397;1183;25559;-64
2023/03/25 00:31:10;;;;;;;;;18.00;17.00;;;;;;;;117256;1182;25639;-65
2023/03/25 00:33:42;;;;;;;;;18.00;16.00;;;;;;;;117470;1194;25088;-68
2023/03/25 00:36:16;;;;;;;;;22.50;17.50;;;;;;;;117409;1180;24778;-69
2023/03/25 00:38:48;;;;;;;;;16.00;15.33;;;;;;;;117442;1180;25531;-62
2023/03/25 00:41:21;;;;;;;;;14.00;12.50;;;;;;;;117384;1194;25223;-62
2023/03/25 00:43:51;;;;;;;;;14.33;14.33;;;;;;;;117388;1183;24688;-63
2023/03/25 00:46:21;;;;;;;;;16.00;14.50;;;;;;;;117422;1182;25308;-63
2023/03/25 00:48:51;;;;;;;;;24.00;19.00;;;;;;;;117375;1189;24725;-63
2023/03/25 00:51:21;;;;;;;;;22.00;17.00;;;;;;;;117371;1190;25464;-63
2023/03/25 00:53:52;;;;;;;;;11.00;8.00;;;;;;;;117378;1194;25709;-63
2023/03/25 00:56:21;;;;;;;;;19.50;17.50;;;;;;;;117414;1180;25138;-63
2023/03/25 00:58:50;;;;;;;;;15.00;13.67;;;;;;;;117415;1194;25339;-63
2023/03/25 01:01:26;;;;;;;;;22.00;19.00;;;;;;;;117416;1181;24791;-63
2023/03/25 01:03:58;;;;;;;;;15.50;15.50;;;;;;;;117391;1180;25175;-63
2023/03/25 01:06:32;;;;;;;;;17.00;14.33;;;;;;;;117380;1180;24807;-64
2023/03/25 01:09:03;;;;;;;;;17.00;13.00;;;;;;;;117494;1194;25106;-65
2023/03/25 01:11:33;;;;;;;;;15.33;13.33;;;;;;;;117379;1180;25047;-63
2023/03/25 01:14:05;;;;;;;;;18.25;17.00;;;;;;;;117398;1184;25413;-63
2023/03/25 01:16:34;;;;;;;;;17.00;16.00;;;;;;;;117376;1194;25643;-63
2023/03/25 01:19:03;;;;;;;;;16.75;15.75;;;;;;;;117409;1194;24834;-63
2023/03/25 01:21:35;;;;;;;;;15.50;15.50;;;;;;;;117420;1188;26370;-63
2023/03/25 01:24:06;;;;;;;;;13.00;13.00;;;;;;;;117350;1180;25104;-63
2023/03/25 01:26:34;;;;;;;;;17.33;15.00;;;;;;;;117384;1193;24716;-63
2023/03/25 01:29:03;;;;;;;;;14.33;12.00;;;;;;;;117374;1180;24857;-63
2023/03/25 01:31:31;;;;;;;;;12.50;11.50;;;;;;;;117423;1180;25195;-63
2023/03/25 01:33:59;;;;;;;;;16.00;15.00;;;;;;;;117392;1181;24943;-63
2023/03/25 01:40:16;;;;;;;;;19.00;15.50;;;;;;;;118025;1174;25147;-65
2023/03/25 01:42:45;;;;;;;;;16.33;14.33;;;;;;;;117413;1194;24895;-64
2023/03/25 01:45:34;;;;;;;;;17.67;17.00;;;;;;;;117422;1193;25504;-63
2023/03/25 01:48:09;;;;;;;;;14.67;14.67;;;;;;;;117433;1194;25197;-64
2023/03/25 01:50:41;;;;;;;;;15.33;14.67;;;;;;;;117445;1193;25760;-64
2023/03/25 01:53:10;;;;;;;;;16.67;13.67;;;;;;;;117427;1194;24881;-64
2023/03/25 01:55:39;;;;;;;;;13.50;11.50;;;;;;;;117429;1182;25074;-64
2023/03/25 01:58:10;;;;;;;;;16.00;14.00;;;;;;;;117428;1180;25024;-64
2023/03/25 02:00:40;;;;;;;;;18.50;14.00;;;;;;;;117394;1181;25498;-63
2023/03/25 02:03:10;;;;;;;;;16.00;15.00;;;;;;;;117437;1182;24712;-63
2023/03/25 02:05:57;;;;;;;;;18.00;15.50;;;;;;;;117401;1186;25278;-63
2023/03/25 02:08:26;;;;;;;;;18.00;18.00;;;;;;;;117406;1185;24763;-63
2023/03/25 02:10:54;;;;;;;;;14.00;14.00;;;;;;;;117396;1192;25592;-64
2023/03/25 02:13:24;;;;;;;;;17.00;16.00;;;;;;;;117443;1187;25252;-64
2023/03/25 02:15:57;;;;;;;;;16.00;14.00;;;;;;;;117413;1186;25393;-62
2023/03/25 02:19:07;;;;;;;;;19.33;18.00;;;;;;;;117406;1180;25013;-64
2023/03/25 02:21:50;;;;;;;;;17.00;15.50;;;;;;;;117354;1181;25329;-64
2023/03/25 02:24:42;;;;;;;;;19.00;16.00;;;;;;;;117386;1194;25371;-64
2023/03/25 02:27:44;;;;;;;;;17.75;14.75;;;;;;;;117462;1185;24848;-64
2023/03/25 02:30:36;;;;;;;;;18.50;14.00;;;;;;;;117380;1181;25615;-65
2023/03/25 02:33:41;;;;;;;;;15.33;14.33;;;;;;;;117451;1194;24979;-65
2023/03/25 02:36:41;;;;;;;;;13.67;13.00;;;;;;;;117348;1194;26116;-64
2023/03/25 02:39:21;;;;;;;;;13.50;12.50;;;;;;;;117362;1183;25312;-65
2023/03/25 02:41:59;;;;;;;;;15.50;15.50;;;;;;;;117410;1194;24946;-65
2023/03/25 02:44:52;;;;;;;;;18.00;15.00;;;;;;;;117376;1180;25689;-64
2023/03/25 02:47:24;;;;;;;;;15.50;15.00;;;;;;;;117380;1180;25522;-64
2023/03/25 02:50:09;;;;;;;;;12.00;12.00;;;;;;;;117415;1180;24967;-64
2023/03/25 02:52:50;;;;;;;;;16.00;16.00;;;;;;;;117365;1182;25369;-63
2023/03/25 02:55:20;;;;;;;;;16.33;14.00;;;;;;;;117409;1186;25575;-65
2023/03/25 02:57:51;;;;;;;;;17.50;17.00;;;;;;;;117369;1193;24933;-65
2023/03/25 03:00:25;;;;;;;;;11.75;11.75;;;;;;;;117362;1194;24911;-65
2023/03/25 03:03:00;;;;;;;;;20.00;14.00;;;;;;;;117357;1188;25077;-64
2023/03/25 03:05:34;;;;;;;;;17.00;14.00;;;;;;;;117383;1183;25463;-64
2023/03/25 03:08:17;;;;;;;;;16.00;12.00;;;;;;;;117392;1194;25317;-63
2023/03/25 03:11:01;;;;;;;;;16.00;13.50;;;;;;;;117411;1183;24829;-62
2023/03/25 03:13:43;;;;;;;;;16.50;15.50;;;;;;;;117385;1182;25340;-63
2023/03/25 03:16:20;;;;;;;;;14.00;14.00;;;;;;;;117522;1182;25333;-65
2023/03/25 03:19:07;;;;;;;;;14.00;13.33;;;;;;;;117467;1180;25453;-64
2023/03/25 03:21:52;;;;;;;;;12.67;12.67;;;;;;;;117434;1194;24991;-65
2023/03/25 03:24:30;;;;;;;;;17.00;14.00;;;;;;;;117400;1180;25231;-65
2023/03/25 03:27:08;;;;;;;;;17.00;14.00;;;;;;;;117367;1180;25898;-63
2023/03/25 03:29:53;;;;;;;;;16.00;15.00;;;;;;;;117395;1182;25568;-64
2023/03/25 03:32:59;;;;;;;;;15.50;15.50;;;;;;;;117422;1186;25382;-64
2023/03/25 03:35:38;;;;;;;;;14.67;14.33;;;;;;;;117404;1183;25158;-63
2023/03/25 03:38:10;;;;;;;;;16.00;14.00;;;;;;;;117419;1190;25217;-64
2023/03/25 03:40:41;;;;;;;;;18.00;16.67;;;;;;;;117354;1182;25402;-64
2023/03/25 03:43:15;;;;;;;;;17.00;16.00;;;;;;;;117392;1181;25135;-64
2023/03/25 03:45:50;;;;;;;;;14.67;13.00;;;;;;;;117432;1193;25438;-64
2023/03/25 03:48:23;;;;;;;;;13.50;12.50;;;;;;;;117438;1180;25318;-64
2023/03/25 03:50:55;;;;;;;;;18.00;15.00;;;;;;;;117403;1184;24983;-64
2023/03/25 03:53:32;;;;;;;;;15.00;13.50;;;;;;;;117389;1181;25093;-64
2023/03/25 03:56:05;;;;;;;;;16.50;13.50;;;;;;;;117448;1180;24996;-63
2023/03/25 03:58:40;;;;;;;;;16.00;13.00;;;;;;;;117445;1180;25541;-63
2023/03/25 04:01:26;;;;;;;;;15.33;12.00;;;;;;;;117407;1186;25562;-63
2023/03/25 04:04:19;;;;;;;;;16.00;15.00;;;;;;;;117416;1181;25240;-64
2023/03/25 04:06:57;;;;;;;;;12.50;11.00;;;;;;;;117385;1180;25203;-65
2023/03/25 04:09:43;;;;;;;;;14.00;14.00;;;;;;;;117389;1180;25486;-64
2023/03/25 04:12:25;;;;;;;;;14.00;13.00;;;;;;;;117409;1192;25380;-64
2023/03/25 04:14:54;;;;;;;;;15.00;13.00;;;;;;;;117440;1194;24850;-64
2023/03/25 04:17:23;;;;;;;;;16.00;12.33;;;;;;;;117419;1187;24820;-64
2023/03/25 04:19:52;;;;;;;;;13.33;11.33;;;;;;;;117407;1194;24825;-64
2023/03/25 04:22:20;;;;;;;;;17.00;16.00;;;;;;;;117387;1180;25402;-65
2023/03/25 04:24:50;;;;;;;;;16.67;15.00;;;;;;;;117427;1184;24708;-64
2023/03/25 04:27:21;;;;;;;;;16.00;14.00;;;;;;;;117401;1194;25019;-65
2023/03/25 04:29:53;;;;;;;;;12.50;12.00;;;;;;;;117429;1194;25626;-63
2023/03/25 04:32:21;;;;;;;;;13.00;11.00;;;;;;;;117441;1185;25071;-63
2023/03/25 04:34:50;;;;;;;;;12.75;12.75;;;;;;;;117431;1180;25542;-63
2023/03/25 04:37:18;;;;;;;;;12.33;11.00;;;;;;;;117419;1186;24956;-64
2023/03/25 04:39:47;;;;;;;;;14.00;12.00;;;;;;;;117369;1183;25939;-63
2023/03/25 04:42:16;;;;;;;;;13.00;11.50;;;;;;;;117448;1194;25557;-64
2023/03/25 04:44:45;;;;;;;;;12.00;12.00;;;;;;;;117481;1180;25708;-64
2023/03/25 04:47:22;;;;;;;;;11.00;9.00;;;;;;;;117434;1180;24777;-65
2023/03/25 04:49:51;;;;;;;;;12.00;11.00;;;;;;;;117416;1193;24851;-64
2023/03/25 04:52:19;;;;;;;;;14.00;12.50;;;;;;;;117441;1184;25607;-63
2023/03/25 04:54:48;;;;;;;;;15.67;12.33;;;;;;;;117418;1194;25362;-64
2023/03/25 04:57:17;;;;;;;;;11.67;11.67;;;;;;;;117416;1181;25248;-67
2023/03/25 04:59:45;;;;;;;;;15.67;13.00;;;;;;;;117427;1182;25116;-65
2023/03/25 05:02:14;;;;;;;;;14.50;12.00;;;;;;;;117402;1193;25422;-64
2023/03/25 05:04:46;;;;;;;;;11.50;10.00;;;;;;;;117393;1183;24959;-64
2023/03/25 05:07:17;;;;;;;;;14.00;13.00;;;;;;;;117376;1191;25150;-65
2023/03/25 05:09:46;;;;;;;;;13.67;13.67;;;;;;;;117410;1180;24804;-64
2023/03/25 05:12:14;;;;;;;;;13.67;11.00;;;;;;;;117448;1180;25005;-63
2023/03/25 05:14:43;;;;;;;;;16.00;14.00;;;;;;;;117383;1180;25133;-64
2023/03/25 05:17:11;;;;;;;;;13.00;10.00;;;;;;;;117416;1180;24954;-63
2023/03/25 05:19:42;;;;;;;;;11.50;11.50;;;;;;;;117412;1194;25550;-65
2023/03/25 05:22:11;;;;;;;;;;;;;;;;;;117404;1181;24882;-63
2023/03/25 05:24:43;;;;;;;;;21.00;13.50;;;;;;;;117438;1180;25408;-63
2023/03/25 05:27:12;;;;;;;;;14.00;13.00;;;;;;;;117425;1180;24898;-64
2023/03/25 05:29:43;;;;;;;;;14.50;14.50;;;;;;;;117411;1183;25219;-64
2023/03/25 05:32:16;;;;;;;;;15.00;13.50;;;;;;;;117399;1194;25586;-63
2023/03/25 05:34:47;;;;;;;;;8.00;6.00;;;;;;;;117399;1180;24697;-64
2023/03/25 05:37:16;;;;;;;;;15.50;14.00;;;;;;;;117413;1183;25145;-63
2023/03/25 05:39:45;;;;;;;;;12.00;12.00;;;;;;;;117438;1181;24797;-63
2023/03/25 05:42:13;;;;;;;;;10.00;10.00;;;;;;;;117420;1194;24915;-64
2023/03/25 05:44:49;;;;;;;;;13.00;10.00;;;;;;;;117391;1194;25556;-63
2023/03/25 05:47:22;;;;;;;;;11.00;11.00;;;;;;;;117411;1181;25037;-63
2023/03/25 05:49:52;;;;;;;;;11.00;11.00;;;;;;;;117407;1183;25548;-65
2023/03/25 05:52:23;;;;;;;;;13.00;12.00;;;;;;;;117379;1181;25568;-63
2023/03/25 05:54:51;;;;;;;;;13.50;11.50;;;;;;;;117424;1180;25360;-63
2023/03/25 05:57:20;;;;;;;;;11.00;9.00;;;;;;;;117407;1180;25416;-63
2023/03/25 05:59:48;;;;;;;;;12.00;10.67;;;;;;;;117457;1192;24763;-63
2023/03/25 06:02:16;;;;;;;;;14.00;12.00;;;;;;;;117392;1180;25042;-63
2023/03/25 06:04:49;;;;;;;;;12.50;11.50;;;;;;;;117434;1180;25193;-63
2023/03/25 06:07:21;;;;;;;;;8.00;8.00;;;;;;;;117441;1182;24979;-63
2023/03/25 06:09:52;;;;;;;;;12.50;12.50;;;;;;;;117430;1181;25037;-63
2023/03/25 06:12:22;;;;;;;;;10.00;10.00;;;;;;;;117406;1180;25635;-64
2023/03/25 06:14:52;;;;;;;;;13.50;10.75;;;;;;;;117438;1194;24856;-63
2023/03/25 06:17:22;;;;;;;;;9.67;9.67;;;;;;;;117406;1191;25298;-64
2023/03/25 06:19:51;;;;;;;;;9.00;9.00;;;;;;;;117411;1193;25401;-63
2023/03/25 06:22:20;;;;;;;;;15.50;12.50;;;;;;;;117431;1181;24875;-62
2023/03/25 06:24:51;;;;;;;;;13.67;12.33;;;;;;;;117409;1181;25313;-63
2023/03/25 06:27:20;;;;;;;;;8.00;8.00;;;;;;;;117413;1183;25308;-62
2023/03/25 06:29:48;;;;;;;;;15.33;13.00;;;;;;;;117424;1180;25159;-63
2023/03/25 06:32:16;;;;;;;;;12.00;11.00;;;;;;;;117417;1187;25094;-63
2023/03/25 06:34:45;;;;;;;;;10.00;9.00;;;;;;;;117387;1194;25221;-63
2023/03/25 06:37:13;;;;;;;;;12.33;11.00;;;;;;;;117464;1194;24989;-63
2023/03/25 06:39:48;;;;;;;;;9.00;9.00;;;;;;;;117410;1194;25369;-63
2023/03/25 06:42:17;;;;;;;;;10.00;9.33;;;;;;;;117363;1181;24826;-64
2023/03/25 06:44:45;;;;;;;;;11.00;9.00;;;;;;;;118167;1189;25006;-61
2023/03/25 06:47:14;;;;;;;;;8.00;8.00;;;;;;;;117414;1186;25012;-63
2023/03/25 06:49:42;;;;;;;;;10.00;8.00;;;;;;;;117350;1184;25081;-63
2023/03/25 06:52:11;;;;;;;;;9.00;9.00;;;;;;;;117399;1182;25003;-64
2023/03/25 06:54:40;;;;;;;;;7.00;7.00;;;;;;;;117392;1183;25618;-62
2023/03/25 06:57:08;;;;;;;;;12.00;10.00;;;;;;;;117417;1180;24891;-64
2023/03/25 06:59:37;;;;;;;;;11.00;8.00;;;;;;;;117416;1182;25646;-61
2023/03/25 07:02:05;;;;;;;;;8.00;8.00;;;;;;;;117392;1180;25693;-63
2023/03/25 07:04:35;;;;;;;;;10.00;10.00;;;;;;;;117437;1180;24735;-64
2023/03/25 07:07:03;;;;;;;;;8.00;7.00;;;;;;;;117386;1181;25167;-63
2023/03/25 07:09:31;;;;;;;;;13.50;10.00;;;;;;;;117382;1182;25126;-67
2023/03/25 07:12:00;;;;;;;;;6.00;6.00;;;;;;;;117395;1194;25435;-64
2023/03/25 07:14:28;;;;;;;;;11.00;11.00;;;;;;;;117382;1183;25494;-64
2023/03/25 07:16:57;;;;;;;;;11.00;10.00;;;;;;;;117387;1182;26372;-64
2023/03/25 07:19:25;;;;;;;;;11.50;11.50;;;;;;;;117351;1190;24879;-65
2023/03/25 07:21:54;;;;;;;;;15.00;15.00;;;;;;;;117370;1182;24847;-64
2023/03/25 07:24:22;;;;;;;;;10.50;9.00;;;;;;;;117424;1184;24849;-63
2023/03/25 07:26:50;;;;;;;;;11.33;11.33;;;;;;;;117394;1182;24743;-65
2023/03/25 07:29:19;;;;;;;;;19.00;13.33;;;;;;;;117379;1182;25668;-64
2023/03/25 07:31:48;;;;;;;;;13.50;12.50;;;;;;;;117406;1180;25074;-64
2023/03/25 07:34:16;;;;;;;;;20.00;16.00;;;;;;;;117400;1190;25523;-63
2023/03/25 07:36:45;;;;;;;;;19.00;16.00;;;;;;;;117397;1183;25074;-65
2023/03/25 07:39:13;;;;;;;;;17.00;15.00;;;;;;;;117425;1189;25667;-63
2023/03/25 07:41:41;;;;;;;;;14.67;14.33;;;;;;;;117440;1182;24937;-66
2023/03/25 07:44:11;;;;;;;;;21.00;18.00;;;;;;;;117388;1183;25609;-67
2023/03/25 07:46:39;;;;;;;;;22.00;16.50;;;;;;;;117438;1183;25303;-66
2023/03/25 07:49:08;;;;;;;;;17.00;16.00;;;;;;;;117415;1183;25090;-66
2023/03/25 07:51:36;;;;;;;;;17.50;14.50;;;;;;;;117411;1194;25068;-65
2023/03/25 07:54:05;;;;;;;;;24.00;17.50;;;;;;;;117399;1182;24899;-65
2023/03/25 07:56:33;;;;;;;;;23.50;16.00;;;;;;;;117419;1182;24883;-66
2023/03/25 07:59:03;;;;;;;;;44.50;32.00;;;;;;;;117430;1180;25351;-67
2023/03/25 08:01:32;;;;;;;;;45.50;29.50;;;;;;;;117467;1189;25622;-71
2023/03/25 08:04:00;;;;;;;;;33.00;22.00;;;;;;;;117489;1181;25448;-71
2023/03/25 08:06:29;;;;;;;;;32.67;23.67;;;;;;;;117501;1186;25522;-69
2023/03/25 08:08:57;;;;;;;;;32.00;23.00;;;;;;;;117453;1194;25776;-67
2023/03/25 08:11:26;;;;;;;;;22.00;19.00;;;;;;;;117437;1183;25416;-67
2023/03/25 08:13:54;;;;;;;;;27.50;19.00;;;;;;;;117412;1192;24741;-70
2023/03/25 08:16:23;;;;;;;;;22.00;21.00;;;;;;;;117392;1194;25536;-68
2023/03/25 08:18:52;;;;;;;;;25.50;19.00;;;;;;;;117428;1181;25138;-67
2023/03/25 08:21:26;;;;;;;;;34.67;22.33;;;;;;;;117398;1182;24911;-65
2023/03/25 08:24:01;;;;;;;;;28.00;21.00;;;;;;;;117405;1182;25094;-76
2023/03/25 08:26:33;;;;;;;;;27.33;16.33;;;;;;;;117375;1184;25028;-64
2023/03/25 08:29:02;;;;;;;;;18.00;16.00;;;;;;;;117410;1180;25709;-66
2023/03/25 08:31:31;;;;;;;;;25.00;16.00;;;;;;;;117425;1184;25317;-69
2023/03/25 08:34:01;;;;;;;;;23.00;20.00;;;;;;;;117447;1187;24897;-66
2023/03/25 08:36:30;;;;;;;;;26.00;21.00;;;;;;;;117454;1185;24749;-70
2023/03/25 08:38:58;;;;;;;;;20.50;17.00;;;;;;;;117424;1185;26870;-73
2023/03/25 08:41:26;;;;;;;;;25.00;19.00;;;;;;;;118551;1192;24698;-75
2023/03/25 08:43:55;;;;;;;;;25.67;20.00;;;;;;;;117382;1180;25674;-73
2023/03/25 08:46:23;;;;;;;;;26.00;19.00;;;;;;;;117361;1184;25021;-73
2023/03/25 08:48:52;;;;;;;;;22.00;16.00;;;;;;;;118069;1193;24893;-73
2023/03/25 08:51:21;;;;;;;;;16.00;14.00;;;;;;;;117444;1193;25469;-74
2023/03/25 08:53:50;;;;;;;;;24.00;19.00;;;;;;;;117431;1183;25495;-71
2023/03/25 08:56:19;;;;;;;;;19.50;16.00;;;;;;;;117402;1181;25429;-74
2023/03/25 08:58:47;;;;;;;;;23.00;17.00;;;;;;;;117459;1194;25134;-76
2023/03/25 09:01:16;;;;;;;;;22.00;17.00;;;;;;;;117415;1186;25285;-75
2023/03/25 09:03:45;;;;;;;;;19.00;15.00;;;;;;;;117381;1194;25380;-75
2023/03/25 09:06:14;;;;;;;;;20.00;16.33;;;;;;;;117414;1194;25411;-74
2023/03/25 09:08:42;;;;;;;;;22.67;16.00;;;;;;;;117443;1191;25266;-76
2023/03/25 09:11:17;;;;;;;;;17.33;15.00;;;;;;;;117415;1186;26494;-75
2023/03/25 09:14:03;;;;;;;;;13.50;9.00;;;;;;;;117403;1180;25564;-74
2023/03/25 09:16:33;;;;;;;;;22.00;15.00;;;;;;;;117437;1181;25339;-73
2023/03/25 09:19:02;;;;;;;;;19.00;16.00;;;;;;;;117433;1186;25350;-74
2023/03/25 09:25:22;;;;;;;;;18.00;15.00;;;;;;;;117634;1177;25305;-65
2023/03/25 09:27:50;;;;;;;;;17.00;14.00;;;;;;;;117381;1188;24921;-64
2023/03/25 09:30:19;;;;;;;;;16.50;12.00;;;;;;;;117335;1184;25182;-62
2023/03/25 09:32:49;;;;;;;;;15.00;12.00;;;;;;;;117319;1195;25567;-68
2023/03/25 09:35:21;;;;;;;;;17.50;13.00;;;;;;;;117025;1186;25055;-62
2023/03/25 09:37:49;;;;;;;;;15.50;14.50;;;;;;;;117262;1195;24927;-62
2023/03/25 09:40:20;;;;;;;;;18.00;12.50;;;;;;;;117280;1184;24828;-62
2023/03/25 09:43:32;;;;;;;;;14.00;12.00;;;;;;;;117329;1184;25393;-63
2023/03/25 09:46:01;;;;;;;;;16.50;11.50;;;;;;;;117120;1190;25597;-63
2023/03/25 09:48:37;;;;;;;;;15.67;13.00;;;;;;;;117105;1184;24778;-62
2023/03/25 09:51:08;;;;;;;;;12.50;12.00;;;;;;;;117372;1183;25256;-62
2023/03/25 09:53:44;;;;;;;;;13.00;9.00;;;;;;;;117326;1196;25713;-62
2023/03/25 09:56:20;;;;;;;;;11.00;9.00;;;;;;;;117385;1195;25616;-63
2023/03/25 09:58:55;;;;;;;;;15.50;12.00;;;;;;;;117354;1184;25472;-63
2023/03/25 10:01:34;;;;;;;;;15.50;10.00;;;;;;;;117335;1184;25141;-61
2023/03/25 10:04:08;;;;;;;;;13.00;10.00;;;;;;;;117313;1184;25716;-61
2023/03/25 10:06:54;;;;;;;;;15.00;13.00;;;;;;;;117325;1184;25952;-62
2023/03/25 10:10:01;;;;;;;;;13.67;9.00;;;;;;;;117338;1196;25050;-61
2023/03/25 10:12:40;;;;;;;;;15.00;12.50;;;;;;;;117048;1196;25522;-62
2023/03/25 10:15:21;;;;;;;;;12.00;11.00;;;;;;;;117248;1184;24747;-61
2023/03/25 10:18:10;;;;;;;;;12.00;11.67;;;;;;;;117104;1184;25171;-61
2023/03/25 10:24:29;;;;;;;;;12.00;11.00;;;;;;;;117914;1177;25307;-75
2023/03/25 10:27:32;;;;;;;;;17.00;12.00;;;;;;;;117371;1183;25669;-76
2023/03/25 10:30:22;;;;;;;;;10.50;8.50;;;;;;;;117346;1184;24909;-75
2023/03/25 10:32:59;;;;;;;;;9.50;9.50;;;;;;;;117375;1196;25552;-76
2023/03/25 10:35:35;;;;;;;;;12.00;9.50;;;;;;;;117364;1183;25537;-76
2023/03/25 10:38:14;;;;;;;;;14.00;10.00;;;;;;;;117349;1189;24699;-75
2023/03/25 10:40:48;;;;;;;;;11.50;10.50;;;;;;;;117324;1183;25101;-75
2023/03/25 10:43:30;;;;;;;;;15.00;12.00;;;;;;;;117386;1187;24901;-75
2023/03/25 10:46:19;;;;;;;;;11.00;11.00;;;;;;;;117111;1193;24985;-75
2023/03/25 10:48:49;;;;;;;;;13.00;12.00;;;;;;;;117382;1183;25049;-73
2023/03/25 10:51:33;;;;;;;;;14.00;12.00;;;;;;;;117139;1191;25048;-75
2023/03/25 10:54:01;;;;;;;;;12.00;12.00;;;;;;;;117133;1185;25068;-75
2023/03/25 10:56:34;;;;;;;;;14.50;11.00;;;;;;;;117168;1184;25651;-76
2023/03/25 10:59:14;;;;;;;;;14.50;11.00;;;;;;;;117091;1196;24834;-76
2023/03/25 11:01:46;;;;;;;;;13.50;11.00;;;;;;;;117364;1196;24945;-77
2023/03/25 11:04:17;;;;;;;;;14.00;12.00;;;;;;;;117357;1184;25478;-76
2023/03/25 11:06:51;;;;;;;;;13.33;13.33;;;;;;;;117356;1192;25275;-76
2023/03/25 11:09:29;;;;;;;;;9.00;9.00;;;;;;;;117137;1185;24857;-76
2023/03/25 11:12:04;;;;;;;;;12.50;11.50;;;;;;;;117160;1193;25113;-75
2023/03/25 11:14:37;;;;;;;;;18.00;14.00;;;;;;;;117107;1187;24856;-72
2023/03/25 11:17:16;;;;;;;;;15.00;11.00;;;;;;;;117111;1183;25258;-70
2023/03/25 11:19:47;;;;;;;;;12.00;12.00;;;;;;;;117126;1196;25614;-70
2023/03/25 11:22:18;;;;;;;;;12.50;11.50;;;;;;;;117342;1183;25069;-71
2023/03/25 11:24:49;;;;;;;;;10.00;10.00;;;;;;;;117121;1196;24786;-70
2023/03/25 11:27:27;;;;;;;;;14.75;13.00;;;;;;;;117328;1184;25162;-71
2023/03/25 11:30:07;;;;;;;;;15.00;11.50;;;;;;;;117110;1185;25479;-71
2023/03/25 11:32:38;;;;;;;;;14.67;12.00;;;;;;;;117324;1183;25014;-70
2023/03/25 11:35:16;;;;;;;;;12.50;12.00;;;;;;;;117367;1184;25202;-70
2023/03/25 11:37:46;;;;;;;;;13.00;13.00;;;;;;;;117357;1183;25315;-70
2023/03/25 11:40:17;;;;;;;;;10.00;9.00;;;;;;;;117105;1185;25665;-69
2023/03/25 11:42:55;;;;;;;;;16.00;12.00;;;;;;;;117109;1184;25538;-69
2023/03/25 11:45:30;;;;;;;;;11.00;11.00;;;;;;;;117183;1183;25015;-70
2023/03/25 11:48:10;;;;;;;;;13.50;10.50;;;;;;;;117144;1183;24861;-69
2023/03/25 11:51:01;;;;;;;;;13.75;12.00;;;;;;;;117276;1184;24871;-69
2023/03/25 11:53:31;;;;;;;;;12.00;11.00;;;;;;;;117325;1196;25499;-69
2023/03/25 11:56:04;;;;;;;;;15.67;13.67;;;;;;;;117270;1183;24782;-69
2023/03/25 11:58:36;;;;;;;;;15.67;12.33;;;;;;;;117149;1194;25359;-69
2023/03/25 12:01:20;;;;;;;;;14.50;12.00;;;;;;;;117327;1196;24878;-68
2023/03/25 12:03:50;;;;;;;;;4.00;4.00;;;;;;;;117122;1184;25033;-69
2023/03/25 12:06:22;;;;;;;;;9.00;9.00;;;;;;;;117054;1190;25045;-66
2023/03/25 12:09:03;;;;;;;;;12.00;10.00;;;;;;;;117204;1184;25281;-69
2023/03/25 12:11:34;;;;;;;;;14.00;13.00;;;;;;;;117076;1185;25720;-71
2023/03/25 12:14:21;;;;;;;;;11.00;6.50;;;;;;;;117295;1183;25412;-71
2023/03/25 12:17:18;;;;;;;;;14.50;12.50;;;;;;;;117229;1182;25385;-73
2023/03/25 12:20:24;;;;;;;;;12.00;12.00;;;;;;;;118398;1184;25080;-69
2023/03/25 12:22:59;;;;;;;;;12.00;10.00;;;;;;;;117654;1182;25647;-72
2023/03/25 12:26:03;;;;;;;;;11.00;11.00;;;;;;;;117052;1193;25060;-71
2023/03/25 12:28:52;;;;;;;;;13.00;12.00;;;;;;;;117208;1186;25675;-72
2023/03/25 12:31:46;;;;;;;;;13.00;13.00;;;;;;;;117231;1192;24766;-72
2023/03/25 12:34:17;;;;;;;;;13.00;13.00;;;;;;;;117289;1182;24728;-74
2023/03/25 12:37:12;;;;;;;;;13.00;9.00;;;;;;;;117110;1188;25246;-75
2023/03/25 12:40:00;;;;;;;;;17.00;13.00;;;;;;;;117284;1183;25098;-72
2023/03/25 12:42:54;;;;;;;;;12.00;10.67;;;;;;;;117312;1183;25691;-74
2023/03/25 12:45:33;;;;;;;;;11.00;11.00;;;;;;;;117350;1182;25181;-73
2023/03/25 12:48:11;;;;;;;;;11.50;11.50;;;;;;;;117395;1187;24954;-75
2023/03/25 12:50:51;;;;;;;;;13.00;11.00;;;;;;;;117340;1196;25226;-73
2023/03/25 12:53:50;;;;;;;;;14.00;13.00;;;;;;;;117313;1184;25135;-73
2023/03/25 12:56:21;;;;;;;;;19.67;13.67;;;;;;;;117321;1196;25576;-74
2023/03/25 12:59:09;;;;;;;;;15.00;11.00;;;;;;;;117242;1193;25236;-71
2023/03/25 13:01:41;;;;;;;;;12.00;12.00;;;;;;;;117061;1183;24806;-72
2023/03/25 13:04:12;;;;;;;;;8.50;6.00;;;;;;;;117067;1196;25749;-72
2023/03/25 13:07:10;;;;;;;;;14.67;11.00;;;;;;;;117074;1187;24945;-72
2023/03/25 13:10:07;;;;;;;;;13.00;10.00;;;;;;;;117326;1196;24796;-70
2023/03/25 13:12:51;;;;;;;;;19.00;11.50;;;;;;;;117333;1184;24930;-70
2023/03/25 13:15:37;;;;;;;;;14.00;12.00;;;;;;;;117094;1196;24788;-71
2023/03/25 13:18:10;;;;;;;;;11.00;10.00;;;;;;;;117356;1188;25063;-73
2023/03/25 13:20:49;;;;;;;;;12.50;12.00;;;;;;;;117334;1184;24947;-70
2023/03/25 13:23:21;;;;;;;;;13.50;11.50;;;;;;;;117346;1194;25599;-72
2023/03/25 13:25:56;;;;;;;;;15.50;13.00;;;;;;;;117315;1188;24783;-72
2023/03/25 13:28:40;;;;;;;;;15.00;12.00;;;;;;;;117131;1191;24991;-71
2023/03/25 13:31:30;;;;;;;;;16.00;15.00;;;;;;;;117041;1197;25361;-71
2023/03/25 13:34:19;;;;;;;;;12.00;11.00;;;;;;;;117062;1197;24772;-72
2023/03/25 13:37:21;;;;;;;;;13.00;11.00;;;;;;;;117149;1182;24880;-71
2023/03/25 13:40:11;;;;;;;;;15.50;13.00;;;;;;;;117320;1188;25622;-70
2023/03/25 13:42:58;;;;;;;;;9.25;8.00;;;;;;;;117338;1192;24934;-70
2023/03/25 13:45:31;;;;;;;;;15.33;11.00;;;;;;;;117349;1192;25253;-71
2023/03/25 13:48:06;;;;;;;;;16.50;12.00;;;;;;;;117043;1194;24990;-70
2023/03/25 13:50:37;;;;;;;;;15.50;13.00;;;;;;;;117339;1182;25266;-70
2023/03/25 13:53:15;;;;;;;;;12.00;12.00;;;;;;;;117128;1183;25621;-70
2023/03/25 13:55:51;;;;;;;;;16.00;11.50;;;;;;;;117366;1183;25160;-77
2023/03/25 13:58:30;;;;;;;;;15.00;11.50;;;;;;;;117110;1183;24709;-70
2023/03/25 14:01:22;;;;;;;;;10.50;7.50;;;;;;;;117342;1183;25491;-70
2023/03/25 14:03:59;;;;;;;;;11.00;8.00;;;;;;;;117335;1184;25234;-70
2023/03/25 14:06:58;;;;;;;;;11.00;10.00;;;;;;;;117293;1182;25480;-70
2023/03/25 14:09:45;;;;;;;;;12.00;10.00;;;;;;;;117377;1182;24774;-69
2023/03/25 14:12:22;;;;;;;;;16.00;10.00;;;;;;;;117292;1184;24823;-70
2023/03/25 14:15:17;;;;;;;;;10.00;10.00;;;;;;;;117324;1189;25407;-69
2023/03/25 14:17:49;;;;;;;;;17.00;12.33;;;;;;;;117364;1184;25279;-69
2023/03/25 14:20:47;;;;;;;;;12.00;11.00;;;;;;;;117116;1196;24688;-70
2023/03/25 14:23:19;;;;;;;;;10.50;9.00;;;;;;;;117188;1195;24715;-71
2023/03/25 14:25:53;;;;;;;;;9.50;9.00;;;;;;;;117321;1196;24944;-70
2023/03/25 14:28:37;;;;;;;;;10.00;9.00;;;;;;;;117093;1184;25480;-71
2023/03/25 14:31:21;;;;;;;;;11.00;11.00;;;;;;;;117339;1183;25353;-69
2023/03/25 14:34:23;;;;;;;;;11.67;11.67;;;;;;;;117347;1184;25007;-69
2023/03/25 14:36:51;;;;;;;;;11.33;10.67;;;;;;;;117340;1183;25737;-69
2023/03/25 14:39:29;;;;;;;;;13.50;8.00;;;;;;;;117321;1182;25716;-69
2023/03/25 14:42:06;;;;;;;;;16.00;12.00;;;;;;;;117321;1195;25787;-69
2023/03/25 14:44:48;;;;;;;;;12.00;12.00;;;;;;;;117335;1184;25354;-72
2023/03/25 14:59:50;;;;;;;;;6.00;6.00;;;;;;;;116223;1195;23884;-69
2023/03/25 15:02:27;;;;;;;;;15.75;13.75;;;;;;;;117319;1192;25688;-68
2023/03/25 15:05:03;;;;;;;;;10.25;7.50;;;;;;;;117309;1190;25211;-69
2023/03/25 15:07:42;;;;;;;;;13.50;10.00;;;;;;;;117314;1193;25564;-66
2023/03/25 15:10:24;;;;;;;;;9.67;9.33;;;;;;;;117300;1196;25147;-67
2023/03/25 15:12:59;;;;;;;;;8.33;8.33;;;;;;;;117381;1188;24914;-67
2023/03/25 15:15:32;;;;;;;;;15.00;11.67;;;;;;;;117348;1183;25215;-67